createdAt,value
2022-10-09T00:01:27.069Z,61.24
2022-10-09T00:03:54.826Z,57.65
2022-10-09T00:06:25.386Z,56.59
2022-10-09T00:08:51.835Z,58.98
2022-10-09T00:11:21.908Z,60.72
2022-10-09T00:13:49.480Z,64.32
2022-10-09T00:16:17.663Z,63.86
2022-10-09T00:18:43.939Z,59.73
2022-10-09T00:21:22.315Z,54.48
2022-10-09T00:23:49.534Z,55.97
2022-10-09T00:26:16.437Z,59.31
2022-10-09T00:28:42.667Z,62.71
2022-10-09T00:31:10.370Z,62.47
2022-10-09T00:33:37.434Z,56.57
2022-10-09T00:36:05.381Z,55.24
2022-10-09T00:38:32.178Z,57.61
2022-10-09T00:40:58.333Z,60.07
2022-10-09T00:43:48.118Z,61.19
2022-10-09T00:46:28.931Z,65.33
2022-10-09T00:49:29.265Z,62.55
2022-10-09T00:51:57.775Z,57.25
2022-10-09T00:54:28.479Z,55.65
2022-10-09T00:56:54.979Z,58.28
2022-10-09T00:59:21.587Z,59.48
2022-10-09T01:01:47.858Z,61.14
2022-10-09T01:04:14.473Z,65.26
2022-10-09T01:06:40.567Z,65.29
2022-10-09T01:09:19.612Z,62.71
2022-10-09T01:11:51.994Z,57.48
2022-10-09T01:14:27.074Z,54.65
2022-10-09T01:17:11.508Z,56.58
2022-10-09T01:20:11.277Z,59.06
2022-10-09T01:23:03.213Z,60.83
2022-10-09T01:25:53.883Z,66.16
2022-10-09T01:28:23.127Z,64.90
2022-10-09T01:30:49.916Z,58.52
2022-10-09T01:33:16.978Z,55.09
2022-10-09T01:35:45.942Z,55.16
2022-10-09T01:38:14.253Z,57.00
2022-10-09T01:40:41.208Z,59.23
2022-10-09T01:43:07.450Z,60.44
2022-10-09T01:45:42.716Z,64.56
2022-10-09T01:48:14.001Z,63.89
2022-10-09T01:50:47.326Z,61.13
2022-10-09T01:53:18.868Z,55.42
2022-10-09T01:55:47.988Z,54.35
2022-10-09T01:58:18.668Z,56.13
2022-10-09T02:01:07.470Z,58.10
2022-10-09T02:03:36.269Z,59.18
2022-10-09T02:06:08.481Z,64.07
2022-10-09T02:08:36.794Z,63.71
2022-10-09T02:11:03.783Z,58.81
2022-10-09T02:13:31.866Z,55.78
2022-10-09T02:16:21.069Z,57.40
2022-10-09T02:19:00.614Z,58.34
2022-10-09T02:21:35.241Z,60.08
2022-10-09T02:24:03.479Z,65.05
2022-10-09T02:26:29.677Z,65.12
2022-10-09T02:28:57.046Z,60.53
2022-10-09T02:31:26.999Z,56.11
2022-10-09T02:33:57.939Z,54.72
2022-10-09T02:36:25.366Z,55.81
2022-10-09T02:38:53.310Z,59.15
2022-10-09T02:41:21.750Z,61.92
2022-10-09T02:43:48.146Z,65.88
2022-10-09T02:46:14.619Z,66.12
2022-10-09T02:48:40.836Z,61.00
2022-10-09T02:51:06.951Z,57.30
2022-10-09T02:53:33.064Z,54.78
2022-10-09T02:55:59.468Z,55.55
2022-10-09T02:58:25.975Z,57.92
2022-10-09T03:00:53.188Z,59.78
2022-10-09T03:03:19.981Z,63.21
2022-10-09T03:05:46.583Z,68.08
2022-10-09T03:08:13.116Z,62.93
2022-10-09T03:10:40.119Z,57.62
2022-10-09T03:13:06.580Z,55.31
2022-10-09T03:15:34.620Z,57.78
2022-10-09T03:18:01.214Z,59.60
2022-10-09T03:20:29.794Z,62.24
2022-10-09T03:22:56.682Z,66.63
2022-10-09T03:25:23.088Z,64.12
2022-10-09T03:27:49.413Z,59.52
2022-10-09T03:30:15.620Z,56.83
2022-10-09T03:32:41.794Z,57.94
2022-10-09T03:35:08.512Z,59.33
2022-10-09T03:37:34.666Z,61.12
2022-10-09T03:40:00.890Z,66.18
2022-10-09T03:42:27.045Z,66.31
2022-10-09T03:44:53.268Z,61.66
2022-10-09T03:47:19.460Z,57.61
2022-10-09T03:49:45.582Z,55.85
2022-10-09T03:52:11.871Z,58.37
2022-10-09T03:54:38.075Z,61.11
2022-10-09T03:57:04.193Z,64.53
2022-10-09T03:59:30.427Z,65.82
2022-10-09T04:01:56.738Z,58.63
2022-10-09T04:04:22.900Z,56.09
2022-10-09T04:06:49.274Z,58.04
2022-10-09T04:09:15.409Z,59.64
2022-10-09T04:11:41.601Z,62.83
2022-10-09T04:14:07.789Z,66.07
2022-10-09T04:16:33.947Z,61.70
2022-10-09T04:19:00.206Z,57.08
2022-10-09T04:21:26.557Z,57.29
2022-10-09T04:23:54.128Z,59.50
2022-10-09T04:26:20.604Z,61.84
2022-10-09T04:28:46.836Z,64.88
2022-10-09T04:31:13.263Z,61.16
2022-10-09T04:33:39.466Z,57.15
2022-10-09T04:36:06.468Z,56.27
2022-10-09T04:38:32.618Z,59.55
2022-10-09T04:41:04.943Z,63.66
2022-10-09T04:43:33.112Z,62.00
2022-10-09T04:46:04.401Z,57.47
2022-10-09T04:48:30.603Z,57.56
2022-10-09T04:50:57.074Z,60.36
2022-10-09T04:53:23.232Z,63.29
2022-10-09T04:55:49.396Z,62.34
2022-10-09T04:58:15.591Z,57.85
2022-10-09T05:00:44.236Z,57.17
2022-10-09T05:03:11.443Z,59.26
2022-10-09T05:05:38.092Z,61.79
2022-10-09T05:08:04.703Z,65.10
2022-10-09T05:10:32.069Z,63.26
2022-10-09T05:12:59.186Z,57.80
2022-10-09T05:15:25.462Z,56.80
2022-10-09T05:17:51.611Z,60.04
2022-10-09T05:20:17.811Z,63.39
2022-10-09T05:22:44.654Z,60.47
2022-10-09T05:25:10.817Z,56.20
2022-10-09T05:27:36.988Z,57.97
2022-10-09T05:30:05.735Z,59.67
2022-10-09T05:32:32.094Z,63.30
2022-10-09T05:34:58.278Z,64.73
2022-10-09T05:37:24.422Z,59.02
2022-10-09T05:39:50.516Z,55.33
2022-10-09T05:42:16.678Z,57.78
2022-10-09T05:44:42.822Z,59.83
2022-10-09T05:47:08.944Z,63.50
2022-10-09T05:49:35.114Z,62.89
2022-10-09T05:52:01.242Z,57.50
2022-10-09T05:54:27.521Z,57.41
2022-10-09T05:56:53.659Z,60.82
2022-10-09T05:59:20.013Z,63.42
2022-10-09T06:01:49.003Z,58.06
2022-10-09T06:04:18.720Z,57.73
2022-10-09T06:06:47.638Z,59.95
2022-10-09T06:09:21.357Z,63.71
2022-10-09T06:11:48.427Z,60.51
2022-10-09T06:14:14.687Z,56.33
2022-10-09T06:16:43.456Z,57.30
2022-10-09T06:19:12.349Z,60.59
2022-10-09T06:21:38.670Z,64.33
2022-10-09T06:24:06.105Z,60.38
2022-10-09T06:26:32.918Z,57.92
2022-10-09T06:29:01.312Z,59.01
2022-10-09T06:31:30.285Z,61.41
2022-10-09T06:33:58.810Z,66.02
2022-10-09T06:36:27.842Z,62.68
2022-10-09T06:38:55.096Z,56.64
2022-10-09T06:41:23.561Z,54.96
2022-10-09T06:43:57.657Z,58.63
2022-10-09T06:46:27.922Z,60.32
2022-10-09T06:48:54.545Z,63.77
2022-10-09T06:51:22.784Z,61.93
2022-10-09T06:53:52.015Z,56.06
2022-10-09T06:56:20.580Z,57.06
2022-10-09T06:58:46.799Z,59.44
2022-10-09T07:01:16.018Z,60.70
2022-10-09T07:03:44.610Z,64.51
2022-10-09T07:06:29.867Z,62.10
2022-10-09T07:08:58.782Z,57.16
2022-10-09T07:11:27.736Z,56.42
2022-10-09T07:13:56.752Z,57.16
2022-10-09T07:16:26.220Z,59.71
2022-10-09T07:18:54.385Z,60.88
2022-10-09T07:21:21.148Z,64.38
2022-10-09T07:23:47.802Z,60.54
2022-10-09T07:26:15.222Z,56.46
2022-10-09T07:28:42.763Z,56.50
2022-10-09T07:31:10.102Z,58.21
2022-10-09T07:33:36.952Z,59.83
2022-10-09T07:36:05.389Z,64.05
2022-10-09T07:38:32.280Z,61.74
2022-10-09T07:41:00.957Z,57.11
2022-10-09T07:43:27.550Z,55.50
2022-10-09T07:45:58.766Z,56.51
2022-10-09T07:48:25.038Z,59.96
2022-10-09T07:50:51.372Z,61.69
2022-10-09T07:53:17.615Z,66.55
2022-10-09T07:55:45.946Z,62.62
2022-10-09T07:58:16.328Z,57.28
2022-10-09T08:00:43.451Z,54.21
2022-10-09T08:03:10.272Z,55.42
2022-10-09T08:05:36.475Z,56.75
2022-10-09T08:08:02.735Z,59.26
2022-10-09T08:10:30.261Z,60.03
2022-10-09T08:12:56.464Z,63.80
2022-10-09T08:15:22.764Z,65.89
2022-10-09T08:17:51.912Z,58.37
2022-10-09T08:20:18.276Z,54.42
2022-10-09T08:22:44.457Z,55.05
2022-10-09T08:25:10.653Z,58.00
2022-10-09T08:27:36.797Z,60.29
2022-10-09T08:30:03.605Z,61.26
2022-10-09T08:32:29.823Z,63.04
2022-10-09T08:34:56.005Z,63.86
2022-10-09T08:37:22.177Z,56.42
2022-10-09T08:39:48.379Z,55.02
2022-10-09T08:42:41.835Z,56.69
2022-10-09T08:45:16.182Z,58.90
2022-10-09T08:48:05.796Z,61.02
2022-10-09T08:50:37.350Z,62.06
2022-10-09T08:53:30.984Z,63.00
2022-10-09T08:56:00.429Z,58.14
2022-10-09T08:58:36.216Z,55.66
2022-10-09T09:01:45.669Z,58.09
2022-10-09T09:04:45.141Z,60.60
2022-10-09T09:07:33.481Z,61.44
2022-10-09T09:10:12.455Z,63.89
2022-10-09T09:13:05.640Z,58.48
2022-10-09T09:15:48.388Z,54.63
2022-10-09T09:18:23.479Z,56.39
2022-10-09T09:21:03.715Z,58.07
2022-10-09T09:23:36.254Z,59.57
2022-10-09T09:26:02.742Z,60.60
2022-10-09T09:28:33.068Z,59.71
2022-10-09T09:31:05.865Z,61.49
2022-10-09T09:33:46.409Z,60.93
2022-10-09T09:36:27.501Z,63.75
2022-10-09T09:39:35.410Z,62.89
2022-10-09T09:41:42.022Z,55.92
2022-10-09T09:44:13.160Z,52.95
2022-10-09T09:46:39.811Z,54.49
2022-10-09T09:49:22.970Z,54.15
2022-10-09T09:51:50.254Z,54.60
2022-10-09T09:54:27.966Z,55.61
2022-10-09T09:57:13.037Z,57.70
2022-10-09T09:59:43.300Z,58.45
2022-10-09T10:02:23.232Z,58.95
2022-10-09T10:04:53.688Z,60.64
2022-10-09T10:07:34.445Z,60.68
2022-10-09T10:10:26.073Z,61.27
2022-10-09T10:12:57.086Z,60.99
2022-10-09T10:15:33.215Z,60.47
2022-10-09T10:18:05.654Z,60.11
2022-10-09T10:20:42.624Z,61.15
2022-10-09T10:23:32.009Z,63.18
2022-10-09T10:26:02.527Z,62.75
2022-10-09T10:28:35.456Z,57.41
2022-10-09T10:31:06.016Z,54.62
2022-10-09T10:33:35.614Z,54.55
2022-10-09T10:36:02.057Z,56.56
2022-10-09T10:38:48.545Z,57.31
2022-10-09T10:41:28.641Z,57.94
2022-10-09T10:44:06.252Z,59.50
2022-10-09T10:46:52.896Z,60.21
2022-10-09T10:49:21.570Z,60.84
2022-10-09T10:52:09.177Z,62.67
2022-10-09T10:54:39.334Z,64.32
2022-10-09T10:57:20.332Z,61.50
2022-10-09T10:59:49.319Z,55.85
2022-10-09T11:02:41.067Z,52.11
2022-10-09T11:05:26.363Z,52.94
2022-10-09T11:08:07.209Z,54.53
2022-10-09T11:10:53.335Z,55.85
2022-10-09T11:13:29.791Z,56.63
2022-10-09T11:16:23.815Z,57.78
2022-10-09T11:19:14.361Z,59.91
2022-10-09T11:21:43.473Z,59.79
2022-10-09T11:24:26.453Z,60.42
2022-10-09T11:27:24.746Z,62.43
2022-10-09T11:29:57.918Z,61.18
2022-10-09T11:32:53.609Z,55.30
2022-10-09T11:35:22.709Z,55.25
2022-10-09T11:37:58.013Z,56.16
2022-10-09T11:40:28.327Z,57.25
2022-10-09T11:43:03.195Z,58.47
2022-10-09T11:45:57.675Z,60.35
2022-10-09T11:48:42.033Z,61.24
2022-10-09T11:51:18.755Z,60.60
2022-10-09T11:53:46.056Z,62.11
2022-10-09T11:56:24.872Z,62.54
2022-10-09T11:59:04.580Z,55.08
2022-10-09T12:01:37.213Z,54.00
2022-10-09T12:04:32.289Z,54.45
2022-10-09T12:07:08.629Z,55.64
2022-10-09T12:09:48.059Z,56.28
2022-10-09T12:12:17.914Z,57.14
2022-10-09T12:14:47.860Z,57.25
2022-10-09T12:17:23.321Z,57.72
2022-10-09T12:19:53.316Z,58.39
2022-10-09T12:22:26.648Z,58.61
2022-10-09T12:24:56.373Z,59.34
2022-10-09T12:27:52.005Z,59.05
2022-10-09T12:30:21.745Z,58.89
2022-10-09T12:33:15.531Z,59.91
2022-10-09T12:35:45.909Z,60.41
2022-10-09T12:38:25.985Z,60.94
2022-10-09T12:40:55.026Z,60.83
2022-10-09T12:43:23.129Z,61.25
2022-10-09T12:45:51.434Z,61.56
2022-10-09T12:48:21.518Z,61.94
2022-10-09T12:50:48.682Z,64.72
2022-10-09T12:53:20.643Z,60.46
2022-10-09T12:55:50.555Z,53.02
2022-10-09T12:58:23.716Z,51.94
2022-10-09T13:00:53.942Z,53.33
2022-10-09T13:03:33.478Z,54.01
2022-10-09T13:06:01.233Z,55.10
2022-10-09T13:08:31.799Z,55.58
2022-10-09T13:11:19.723Z,56.19
2022-10-09T13:13:50.815Z,55.68
2022-10-09T13:16:17.356Z,56.06
2022-10-09T13:18:55.009Z,56.74
2022-10-09T13:21:26.627Z,57.19
2022-10-09T13:23:55.776Z,58.76
2022-10-09T13:26:28.752Z,58.55
2022-10-09T13:28:57.519Z,59.33
2022-10-09T13:31:25.573Z,59.16
2022-10-09T13:33:51.977Z,58.78
2022-10-09T13:36:19.290Z,59.25
2022-10-09T13:38:46.817Z,60.01
2022-10-09T13:41:19.912Z,60.17
2022-10-09T13:43:47.425Z,60.48
2022-10-09T13:46:13.727Z,60.69
2022-10-09T13:48:39.934Z,60.99
2022-10-09T13:51:06.240Z,61.08
2022-10-09T13:53:32.778Z,60.94
2022-10-09T13:56:00.959Z,61.48
2022-10-09T13:58:27.686Z,61.73
2022-10-09T14:00:53.989Z,61.49
2022-10-09T14:03:20.621Z,61.82
2022-10-09T14:05:46.803Z,64.25
2022-10-09T14:08:13.074Z,68.84
2022-10-09T14:10:43.264Z,60.62
2022-10-09T14:13:10.428Z,53.71
2022-10-09T14:15:42.574Z,52.11
2022-10-09T14:18:08.914Z,52.46
2022-10-09T14:20:35.378Z,53.35
2022-10-09T14:23:01.564Z,54.60
2022-10-09T14:25:27.966Z,55.63
2022-10-09T14:27:54.453Z,56.23
2022-10-09T14:30:20.648Z,56.59
2022-10-09T14:32:47.184Z,58.25
2022-10-09T14:35:16.964Z,58.40
2022-10-09T14:37:46.886Z,59.02
2022-10-09T14:40:13.165Z,59.63
2022-10-09T14:42:39.876Z,60.40
2022-10-09T14:45:07.492Z,60.37
2022-10-09T14:47:33.838Z,60.98
2022-10-09T14:50:00.044Z,61.15
2022-10-09T14:52:26.314Z,61.75
2022-10-09T14:54:53.228Z,61.97
2022-10-09T14:57:19.447Z,65.59
2022-10-09T14:59:45.762Z,60.48
2022-10-09T15:02:14.470Z,54.82
2022-10-09T15:04:40.848Z,53.21
2022-10-09T15:07:07.217Z,54.12
2022-10-09T15:09:33.430Z,54.91
2022-10-09T15:11:59.637Z,56.33
2022-10-09T15:14:25.860Z,57.67
2022-10-09T15:16:52.071Z,58.79
2022-10-09T15:19:18.376Z,59.76
2022-10-09T15:21:44.658Z,60.97
2022-10-09T15:24:11.028Z,62.24
2022-10-09T15:26:37.945Z,67.59
2022-10-09T15:29:06.285Z,62.89
2022-10-09T15:31:37.372Z,56.56
2022-10-09T15:34:05.129Z,54.74
2022-10-09T15:36:35.390Z,54.69
2022-10-09T15:39:05.387Z,55.69
2022-10-09T15:41:34.473Z,57.13
2022-10-09T15:44:03.633Z,58.29
2022-10-09T15:46:30.721Z,59.32
2022-10-09T15:48:57.601Z,60.30
2022-10-09T15:51:24.895Z,61.00
2022-10-09T15:53:52.282Z,66.79
2022-10-09T15:56:22.958Z,68.90
2022-10-09T15:58:50.977Z,65.45
2022-10-09T16:01:18.832Z,62.11
2022-10-09T16:03:46.227Z,57.43
2022-10-09T16:06:15.180Z,54.09
2022-10-09T16:08:42.605Z,53.59
2022-10-09T16:11:12.042Z,54.11
2022-10-09T16:13:40.493Z,55.08
2022-10-09T16:16:09.425Z,56.07
2022-10-09T16:18:36.064Z,57.12
2022-10-09T16:21:10.662Z,58.01
2022-10-09T16:23:36.948Z,58.87
2022-10-09T16:26:03.949Z,60.19
2022-10-09T16:28:30.865Z,61.19
2022-10-09T16:30:57.569Z,66.04
2022-10-09T16:33:23.778Z,68.28
2022-10-09T16:35:50.045Z,63.99
2022-10-09T16:38:17.168Z,61.63
2022-10-09T16:41:03.769Z,57.28
2022-10-09T16:43:33.812Z,54.06
2022-10-09T16:46:16.208Z,53.66
2022-10-09T16:48:42.436Z,54.30
2022-10-09T16:51:13.067Z,55.32
2022-10-09T16:53:39.964Z,56.21
2022-10-09T16:56:16.973Z,57.31
2022-10-09T16:58:43.205Z,58.56
2022-10-09T17:01:10.666Z,60.11
2022-10-09T17:03:39.728Z,61.10
2022-10-09T17:06:12.158Z,65.07
2022-10-09T17:08:38.675Z,67.00
2022-10-09T17:11:07.161Z,61.92
2022-10-09T17:13:33.424Z,58.10
2022-10-09T17:15:59.777Z,54.79
2022-10-09T17:18:26.216Z,54.74
2022-10-09T17:20:52.443Z,55.28
2022-10-09T17:23:18.604Z,56.27
2022-10-09T17:25:45.167Z,57.29
2022-10-09T17:28:11.449Z,58.50
2022-10-09T17:30:39.944Z,59.94
2022-10-09T17:33:06.599Z,60.65
2022-10-09T17:35:32.927Z,66.98
2022-10-09T17:37:59.086Z,70.06
2022-10-09T17:40:25.603Z,66.16
2022-10-09T17:42:51.968Z,63.01
2022-10-09T17:45:18.334Z,60.98
2022-10-09T17:47:44.508Z,56.81
2022-10-09T17:50:10.930Z,53.15
2022-10-09T17:52:37.174Z,52.33
2022-10-09T17:55:04.316Z,52.78
2022-10-09T17:57:30.596Z,53.64
2022-10-09T17:59:56.790Z,54.65
2022-10-09T18:02:23.064Z,55.85
2022-10-09T18:04:49.247Z,57.01
2022-10-09T18:07:18.849Z,58.22
2022-10-09T18:09:44.940Z,59.30
2022-10-09T18:12:11.122Z,58.03
2022-10-09T18:14:37.354Z,60.51
2022-10-09T18:17:03.535Z,67.68
2022-10-09T18:19:29.744Z,70.80
2022-10-09T18:21:55.994Z,67.37
2022-10-09T18:24:22.153Z,64.16
2022-10-09T18:26:48.444Z,61.77
2022-10-09T18:29:14.756Z,57.26
2022-10-09T18:31:40.963Z,52.80
2022-10-09T18:34:08.796Z,52.23
2022-10-09T18:36:35.573Z,52.74
2022-10-09T18:39:08.849Z,53.69
2022-10-09T18:41:36.655Z,54.84
2022-10-09T18:44:04.074Z,55.89
2022-10-09T18:46:37.068Z,57.10
2022-10-09T18:49:09.182Z,58.35
2022-10-09T18:51:38.281Z,59.40
2022-10-09T18:54:06.801Z,60.49
2022-10-09T18:56:35.483Z,61.56
2022-10-09T18:59:06.278Z,67.04
2022-10-09T19:01:32.662Z,69.23
2022-10-09T19:03:59.305Z,65.93
2022-10-09T19:06:25.629Z,63.48
2022-10-09T19:08:52.692Z,61.22
2022-10-09T19:11:18.962Z,57.17
2022-10-09T19:13:45.529Z,53.18
2022-10-09T19:16:11.757Z,52.85
2022-10-09T19:18:38.738Z,53.60
2022-10-09T19:21:05.308Z,54.18
2022-10-09T19:23:31.518Z,55.34
2022-10-09T19:25:59.048Z,56.76
2022-10-09T19:28:30.036Z,57.45
2022-10-09T19:30:56.531Z,58.48
2022-10-09T19:33:22.816Z,59.18
2022-10-09T19:35:51.792Z,60.29
2022-10-09T19:38:18.755Z,61.15
2022-10-09T19:40:45.984Z,67.68
2022-10-09T19:43:13.402Z,71.41
2022-10-09T19:45:40.589Z,67.77
2022-10-09T19:48:06.894Z,64.09
2022-10-09T19:50:33.689Z,61.05
2022-10-09T19:53:02.537Z,57.00
2022-10-09T19:55:31.932Z,53.39
2022-10-09T19:57:58.358Z,52.64
2022-10-09T20:00:25.868Z,53.20
2022-10-09T20:02:52.822Z,54.15
2022-10-09T20:05:19.566Z,55.49
2022-10-09T20:07:45.760Z,56.77
2022-10-09T20:10:11.965Z,57.39
2022-10-09T20:12:38.146Z,58.19
2022-10-09T20:15:04.830Z,59.28
2022-10-09T20:17:31.143Z,60.55
2022-10-09T20:19:57.375Z,61.08
2022-10-09T20:22:23.512Z,66.90
2022-10-09T20:24:52.751Z,71.04
2022-10-09T20:27:19.276Z,67.18
2022-10-09T20:29:45.521Z,64.28
2022-10-09T20:32:11.885Z,61.98
2022-10-09T20:34:38.139Z,57.68
2022-10-09T20:37:04.378Z,53.37
2022-10-09T20:39:30.707Z,52.58
2022-10-09T20:41:56.970Z,53.07
2022-10-09T20:44:23.148Z,54.04
2022-10-09T20:46:49.358Z,54.89
2022-10-09T20:49:15.680Z,56.74
2022-10-09T20:51:42.395Z,58.60
2022-10-09T20:54:15.469Z,59.89
2022-10-09T20:56:43.677Z,60.58
2022-10-09T20:59:10.441Z,61.36
2022-10-09T21:01:36.827Z,67.25
2022-10-09T21:04:04.093Z,70.94
2022-10-09T21:06:30.775Z,67.52
2022-10-09T21:08:57.506Z,63.55
2022-10-09T21:11:24.541Z,61.04
2022-10-09T21:13:51.300Z,55.58
2022-10-09T21:16:20.841Z,51.01
2022-10-09T21:18:47.635Z,51.59
2022-10-09T21:21:16.379Z,53.71
2022-10-09T21:23:43.825Z,54.91
2022-10-09T21:26:12.749Z,55.69
2022-10-09T21:28:39.010Z,57.43
2022-10-09T21:31:15.327Z,60.24
2022-10-09T21:33:42.057Z,61.13
2022-10-09T21:36:17.173Z,65.96
2022-10-09T21:38:43.333Z,70.70
2022-10-09T21:41:09.767Z,67.35
2022-10-09T21:43:35.961Z,64.03
2022-10-09T21:46:02.141Z,61.04
2022-10-09T21:48:28.498Z,56.51
2022-10-09T21:50:56.146Z,52.71
2022-10-09T21:53:22.280Z,52.19
2022-10-09T21:55:48.687Z,53.23
2022-10-09T21:58:14.866Z,54.47
2022-10-09T22:00:41.119Z,55.07
2022-10-09T22:03:07.247Z,56.00
2022-10-09T22:05:33.473Z,57.21
2022-10-09T22:07:59.699Z,58.30
2022-10-09T22:10:25.849Z,59.31
2022-10-09T22:12:52.489Z,60.54
2022-10-09T22:15:19.035Z,61.38
2022-10-09T22:17:45.243Z,66.30
2022-10-09T22:20:12.349Z,66.04
2022-10-09T22:22:38.535Z,63.19
2022-10-09T22:25:07.381Z,61.85
2022-10-09T22:27:33.637Z,57.92
2022-10-09T22:29:59.790Z,54.05
2022-10-09T22:32:26.053Z,53.30
2022-10-09T22:34:52.494Z,53.62
2022-10-09T22:37:18.645Z,54.81
2022-10-09T22:39:44.916Z,56.04
2022-10-09T22:42:11.220Z,57.49
2022-10-09T22:44:37.432Z,58.70
2022-10-09T22:47:03.642Z,59.54
2022-10-09T22:49:29.791Z,60.90
2022-10-09T22:51:56.159Z,66.34
2022-10-09T22:54:22.421Z,70.70
2022-10-09T22:56:48.691Z,66.46
2022-10-09T22:59:17.379Z,63.04
2022-10-09T23:01:52.756Z,61.05
2022-10-09T23:04:20.774Z,57.50
2022-10-09T23:06:50.789Z,54.49
2022-10-09T23:09:18.105Z,53.29
2022-10-09T23:11:44.454Z,53.33
2022-10-09T23:14:11.939Z,54.52
2022-10-09T23:16:38.160Z,55.84
2022-10-09T23:19:06.986Z,56.33
2022-10-09T23:21:35.290Z,57.20
2022-10-09T23:24:01.528Z,58.10
2022-10-09T23:26:30.398Z,59.40
2022-10-09T23:28:59.596Z,60.38
2022-10-09T23:31:27.243Z,61.45
2022-10-09T23:33:54.170Z,68.20
2022-10-09T23:36:23.474Z,71.99
2022-10-09T23:38:50.091Z,67.90
2022-10-09T23:41:19.078Z,64.38
2022-10-09T23:43:46.889Z,61.92
2022-10-09T23:46:16.572Z,57.69
2022-10-09T23:48:43.480Z,54.25
2022-10-09T23:51:10.367Z,52.37
2022-10-09T23:53:37.039Z,52.55
2022-10-09T23:56:19.800Z,53.20
2022-10-09T23:58:46.879Z,54.05
